Time;durP1;ratioP1;P1;durP2;ratioP2;P2;SDS_P1;SDS_P2;PMS_P1;PMS_P2;Temp;Humidity;BMP_temperature;BMP_pressure;BME280_temperature;BME280_humidity;BME280_pressure;Samples;Min_cycle;Max_cycle;Signal;HPM_P1;HPM_P2
2022/03/29 00:01:06;;;;;;;0.22;0.22;;;8.00;64.40;;;;;;5032622;28;20388;-72
2022/03/29 00:03:32;;;;;;;0.85;0.77;;;8.00;64.50;;;;;;5032593;28;20104;-72
2022/03/29 00:05:58;;;;;;;0.50;0.50;;;7.90;64.90;;;;;;5032158;28;20025;-72
2022/03/29 00:08:23;;;;;;;0.40;0.40;;;7.80;65.10;;;;;;5032593;28;20072;-72
2022/03/29 00:10:49;;;;;;;0.30;0.30;;;7.70;65.80;;;;;;5031356;28;20033;-72
2022/03/29 00:13:15;;;;;;;1.13;1.13;;;7.60;66.00;;;;;;5032478;28;20025;-71
2022/03/29 00:15:41;;;;;;;0.20;0.20;;;7.60;66.40;;;;;;5014517;28;20092;-72
2022/03/29 00:18:06;;;;;;;0.40;0.40;;;7.50;66.50;;;;;;5032230;28;20041;-72
2022/03/29 00:20:32;;;;;;;2.47;2.22;;;7.40;67.00;;;;;;5032250;28;20389;-72
2022/03/29 00:22:58;;;;;;;2.70;1.25;;;7.50;66.70;;;;;;5032238;28;20021;-72
2022/03/29 00:25:24;;;;;;;0.50;0.50;;;7.60;66.80;;;;;;5032150;28;20033;-72
2022/03/29 00:27:50;;;;;;;0.77;0.77;;;7.70;66.30;;;;;;5032118;28;20049;-72
2022/03/29 00:30:16;;;;;;;0.68;0.68;;;7.90;65.60;;;;;;5032218;28;20476;-72
2022/03/29 00:32:44;;;;;;;0.32;0.32;;;8.00;65.40;;;;;;5032082;28;20033;-72
2022/03/29 00:35:10;;;;;;;0.20;0.20;;;8.00;65.30;;;;;;5031899;28;20040;-71
2022/03/29 00:37:41;;;;;;;0.45;0.38;;;7.90;65.40;;;;;;5032039;28;20436;-72
2022/03/29 00:40:09;;;;;;;0.30;0.30;;;8.00;65.50;;;;;;5032221;28;20025;-72
2022/03/29 00:42:35;;;;;;;1.95;1.85;;;8.00;65.30;;;;;;5031971;28;20028;-72
2022/03/29 00:45:02;;;;;;;0.20;0.20;;;8.20;64.80;;;;;;5031891;28;20026;-72
2022/03/29 00:47:27;;;;;;;1.25;1.25;;;8.00;64.90;;;;;;5031860;28;20037;-72
2022/03/29 00:49:53;;;;;;;0.20;0.20;;;8.00;65.50;;;;;;5031996;28;20025;-72
2022/03/29 00:52:20;;;;;;;0.30;0.30;;;8.10;65.40;;;;;;5014279;28;20044;-72
2022/03/29 00:54:46;;;;;;;0.43;0.43;;;8.20;65.10;;;;;;5014073;28;20389;-72
2022/03/29 00:57:12;;;;;;;0.30;0.30;;;8.10;65.20;;;;;;5014063;28;20025;-72
2022/03/29 00:59:40;;;;;;;0.38;0.38;;;8.00;65.20;;;;;;5014157;28;20030;-72
2022/03/29 01:02:06;;;;;;;0.40;0.40;;;7.90;66.00;;;;;;5031924;28;20087;-72
2022/03/29 01:04:31;;;;;;;0.30;0.30;;;7.80;66.20;;;;;;5031798;28;20416;-72
2022/03/29 01:06:58;;;;;;;0.60;0.60;;;7.80;66.70;;;;;;5031643;28;20477;-73
2022/03/29 01:09:26;;;;;;;0.60;0.60;;;7.90;66.50;;;;;;5032496;28;20024;-72
2022/03/29 01:11:52;;;;;;;2.42;1.70;;;8.10;66.10;;;;;;5035712;28;20029;-72
2022/03/29 01:14:20;;;;;;;0.30;0.30;;;8.20;65.40;;;;;;5035775;28;20029;-73
2022/03/29 01:19:31;;;;;;;0.57;0.57;;;8.20;65.20;;;;;;5035636;28;20025;-72
2022/03/29 01:21:58;;;;;;;0.40;0.40;;;8.10;65.40;;;;;;5035553;28;20492;-71
2022/03/29 01:24:25;;;;;;;0.20;0.20;;;8.10;66.10;;;;;;5035475;28;20018;-72
2022/03/29 01:26:53;;;;;;;0.30;0.30;;;8.00;66.20;;;;;;5035479;28;20022;-72
2022/03/29 01:29:20;;;;;;;0.30;0.30;;;8.10;66.00;;;;;;5035379;28;20469;-72
2022/03/29 01:31:49;;;;;;;0.75;0.75;;;8.10;65.80;;;;;;5017595;28;20096;-72
2022/03/29 01:34:17;;;;;;;0.40;0.40;;;8.20;65.70;;;;;;5035275;28;20066;-72
2022/03/29 01:36:43;;;;;;;0.30;0.30;;;8.30;65.10;;;;;;5035072;28;20397;-72
2022/03/29 01:39:08;;;;;;;0.40;0.40;;;8.30;65.10;;;;;;5034026;28;20017;-72
2022/03/29 01:41:34;;;;;;;0.30;0.30;;;8.50;64.90;;;;;;5033916;28;20045;-72
2022/03/29 01:44:00;;;;;;;0.20;0.20;;;8.50;64.30;;;;;;5035103;28;20033;-72
2022/03/29 01:46:26;;;;;;;0.30;0.30;;;8.60;64.40;;;;;;5034899;28;20477;-72
2022/03/29 01:48:53;;;;;;;0.30;0.30;;;8.50;64.00;;;;;;5017380;28;20167;-72
2022/03/29 01:51:18;;;;;;;6.45;0.75;;;8.50;64.20;;;;;;5034975;28;20420;-72
2022/03/29 01:53:51;;;;;;;1.05;1.05;;;8.40;64.90;;;;;;5035028;28;20033;-72
2022/03/29 01:56:17;;;;;;;0.30;0.30;;;8.40;64.50;;;;;;5034727;28;20039;-72
2022/03/29 01:58:43;;;;;;;2.22;1.65;;;8.40;65.10;;;;;;5017086;28;20396;-72
2022/03/29 02:01:08;;;;;;;0.28;0.28;;;8.50;65.10;;;;;;5034867;28;20024;-72
2022/03/29 02:03:34;;;;;;;0.30;0.30;;;8.50;65.10;;;;;;5017147;28;20027;-72
2022/03/29 02:06:00;;;;;;;0.30;0.30;;;8.50;65.40;;;;;;5033269;28;20097;-72
2022/03/29 02:08:26;;;;;;;0.30;0.30;;;8.40;65.50;;;;;;5034773;28;20091;-72
2022/03/29 02:10:52;;;;;;;5.10;4.80;;;8.50;65.90;;;;;;5034670;28;20021;-72
2022/03/29 02:13:18;;;;;;;0.20;0.20;;;8.50;65.90;;;;;;5016897;28;20028;-72
2022/03/29 02:15:44;;;;;;;0.30;0.30;;;8.80;64.80;;;;;;5033171;28;20026;-71
2022/03/29 02:18:10;;;;;;;0.40;0.40;;;8.80;64.80;;;;;;5016628;28;20040;-72
2022/03/29 02:20:36;;;;;;;0.30;0.30;;;8.50;65.60;;;;;;5016523;28;20563;-72
2022/03/29 02:23:03;;;;;;;0.30;0.30;;;8.40;66.60;;;;;;5016975;28;20071;-72
2022/03/29 02:25:30;;;;;;;0.28;0.28;;;8.50;66.20;;;;;;5034204;28;20036;-72
2022/03/29 02:27:57;;;;;;;0.22;0.22;;;8.80;66.00;;;;;;5033324;28;20029;-72
2022/03/29 02:30:22;;;;;;;0.20;0.20;;;8.70;65.20;;;;;;5016461;28;20026;-72
2022/03/29 02:32:48;;;;;;;0.30;0.30;;;8.80;65.00;;;;;;5016507;28;20032;-72
2022/03/29 02:35:14;;;;;;;0.30;0.30;;;8.60;66.20;;;;;;5033999;28;20575;-72
2022/03/29 02:37:40;;;;;;;2.35;2.25;;;8.50;66.20;;;;;;5034121;28;20451;-72
2022/03/29 02:40:07;;;;;;;0.60;0.60;;;8.30;66.70;;;;;;5016621;28;20029;-72
2022/03/29 02:42:43;;;;;;;0.30;0.30;;;8.30;67.90;;;;;;5034028;28;20030;-72
2022/03/29 02:45:21;;;;;;;16.15;2.90;;;8.40;67.40;;;;;;5016146;28;20109;-72
2022/03/29 02:47:51;;;;;;;1.08;0.93;;;8.20;67.80;;;;;;5033923;28;20053;-71
2022/03/29 02:50:18;;;;;;;0.52;0.52;;;8.10;67.80;;;;;;5016126;28;20112;-72
2022/03/29 02:52:48;;;;;;;0.30;0.30;;;8.00;68.50;;;;;;5033931;28;20034;-72
2022/03/29 02:55:15;;;;;;;0.35;0.35;;;8.10;68.30;;;;;;5033702;28;20033;-72
2022/03/29 02:57:42;;;;;;;0.22;0.22;;;8.20;67.80;;;;;;5033668;28;20017;-73
2022/03/29 03:00:10;;;;;;;0.22;0.22;;;8.20;67.50;;;;;;5033854;28;20053;-72
2022/03/29 03:02:36;;;;;;;0.20;0.20;;;8.10;67.80;;;;;;5015960;28;20017;-72
2022/03/29 03:05:03;;;;;;;0.30;0.30;;;8.20;67.30;;;;;;5033705;28;20030;-73
2022/03/29 03:07:29;;;;;;;1.60;1.27;;;8.00;67.90;;;;;;5032332;28;20033;-73
2022/03/29 03:09:55;;;;;;;3.90;1.30;;;7.90;68.40;;;;;;5033585;28;20045;-73
2022/03/29 03:12:21;;;;;;;32.20;29.00;;;7.90;68.30;;;;;;5033411;28;20074;-73
2022/03/29 03:14:48;;;;;;;0.30;0.30;;;8.00;68.50;;;;;;5015819;28;20112;-73
2022/03/29 03:17:14;;;;;;;0.30;0.30;;;7.80;68.30;;;;;;5033406;28;20022;-73
2022/03/29 03:19:39;;;;;;;0.30;0.30;;;7.80;68.80;;;;;;5033292;28;20037;-73
2022/03/29 03:22:05;;;;;;;0.20;0.20;;;7.70;68.90;;;;;;5032208;28;20025;-73
2022/03/29 03:24:31;;;;;;;1.45;1.38;;;7.80;68.80;;;;;;5032091;28;20057;-73
2022/03/29 03:26:57;;;;;;;1.05;1.05;;;7.90;68.90;;;;;;5015365;28;20025;-73
2022/03/29 03:29:23;;;;;;;0.30;0.30;;;8.00;68.20;;;;;;5031922;28;20018;-73
2022/03/29 03:31:49;;;;;;;0.50;0.50;;;8.10;68.10;;;;;;5032870;28;20079;-74
2022/03/29 03:34:15;;;;;;;0.20;0.20;;;8.20;67.40;;;;;;5032975;28;20507;-72
2022/03/29 03:36:40;;;;;;;0.30;0.30;;;8.30;67.20;;;;;;5033133;28;20108;-71
2022/03/29 03:39:06;;;;;;;2.67;1.90;;;8.20;66.70;;;;;;5033034;28;20045;-72
2022/03/29 03:41:32;;;;;;;0.88;0.88;;;8.30;66.70;;;;;;5032734;28;20028;-72
2022/03/29 03:43:58;;;;;;;4.78;3.72;;;8.20;66.50;;;;;;5032946;28;20048;-72
2022/03/29 03:46:24;;;;;;;0.60;0.60;;;8.10;66.90;;;;;;5032645;28;20067;-72
2022/03/29 03:48:50;;;;;;;0.25;0.25;;;8.00;67.20;;;;;;5015197;28;20436;-72
2022/03/29 03:51:15;;;;;;;94.70;13.85;;;7.90;67.60;;;;;;5014997;28;20105;-71
2022/03/29 03:53:42;;;;;;;10.05;2.15;;;8.20;67.30;;;;;;5014968;28;20025;-71
2022/03/29 03:56:08;;;;;;;3.10;1.85;;;8.30;66.10;;;;;;5032359;28;20499;-72
2022/03/29 03:58:33;;;;;;;0.30;0.30;;;8.30;66.10;;;;;;5032671;28;20021;-72
2022/03/29 04:00:59;;;;;;;0.68;0.68;;;8.30;65.70;;;;;;5032625;28;20480;-72
2022/03/29 04:03:25;;;;;;;0.30;0.30;;;8.20;66.50;;;;;;5032651;28;20356;-72
2022/03/29 04:05:52;;;;;;;0.77;0.77;;;8.10;66.60;;;;;;5031175;28;20392;-72
2022/03/29 04:08:18;;;;;;;0.60;0.60;;;8.10;66.20;;;;;;5032436;28;20025;-72
2022/03/29 04:10:44;;;;;;;28.02;7.78;;;8.30;65.70;;;;;;5032462;28;20033;-71
2022/03/29 04:13:10;;;;;;;0.30;0.30;;;8.20;65.60;;;;;;5014622;28;20025;-72
2022/03/29 04:15:36;;;;;;;0.28;0.28;;;8.10;66.30;;;;;;5032106;28;20570;-72
2022/03/29 04:18:02;;;;;;;1.88;0.98;;;8.10;66.20;;;;;;5029934;22;20057;-75
2022/03/29 04:20:29;;;;;;;0.30;0.30;;;8.00;66.00;;;;;;5050461;28;20045;-75
2022/03/29 04:22:55;;;;;;;8.68;3.95;;;7.90;66.50;;;;;;5051073;28;20502;-75
2022/03/29 04:25:22;;;;;;;0.70;0.70;;;7.80;67.00;;;;;;5034121;28;20116;-75
2022/03/29 04:27:48;;;;;;;0.70;0.70;;;7.90;67.00;;;;;;5017649;28;20126;-75
2022/03/29 04:30:13;;;;;;;0.52;0.52;;;7.80;67.10;;;;;;5034309;28;20514;-75
2022/03/29 04:32:39;;;;;;;0.30;0.30;;;7.90;67.00;;;;;;5051764;28;20431;-76
2022/03/29 04:35:06;;;;;;;0.28;0.28;;;8.00;66.40;;;;;;5034008;28;20116;-75
2022/03/29 04:37:32;;;;;;;0.35;0.35;;;8.10;66.40;;;;;;5034270;28;20021;-75
2022/03/29 04:39:58;;;;;;;0.30;0.30;;;8.00;66.90;;;;;;5034005;28;20040;-75
2022/03/29 04:42:23;;;;;;;0.30;0.30;;;8.10;66.40;;;;;;5051790;28;20469;-75
2022/03/29 04:44:49;;;;;;;1.50;1.40;;;8.20;66.10;;;;;;5033065;28;20028;-75
2022/03/29 04:47:15;;;;;;;3.22;1.83;;;8.10;66.00;;;;;;5051585;28;20412;-75
2022/03/29 04:49:40;;;;;;;0.30;0.30;;;8.00;66.10;;;;;;5051852;28;20021;-76
2022/03/29 04:52:06;;;;;;;5.45;3.55;;;8.10;66.10;;;;;;5051747;28;20029;-75
2022/03/29 04:54:32;;;;;;;2.72;2.63;;;8.20;65.80;;;;;;5051540;28;20440;-75
2022/03/29 04:57:00;;;;;;;0.30;0.30;;;8.30;65.40;;;;;;5017296;28;20091;-75
2022/03/29 04:59:26;;;;;;;0.30;0.30;;;8.40;65.20;;;;;;5033746;28;20017;-75
2022/03/29 05:01:52;;;;;;;0.70;0.70;;;8.40;65.10;;;;;;5033718;28;20025;-75
2022/03/29 05:04:18;;;;;;;1.10;0.73;;;8.40;65.10;;;;;;5033720;28;20032;-75
2022/03/29 05:06:44;;;;;;;0.20;0.20;;;8.30;65.60;;;;;;5033747;28;20031;-75
2022/03/29 05:09:10;;;;;;;4.32;1.65;;;8.40;64.90;;;;;;5033801;28;20403;-75
2022/03/29 05:11:35;;;;;;;0.30;0.30;;;8.50;64.70;;;;;;5033868;28;20480;-75
2022/03/29 05:14:01;;;;;;;0.45;0.45;;;8.40;64.90;;;;;;5033797;28;20078;-76
2022/03/29 05:16:27;;;;;;;0.20;0.20;;;8.30;65.50;;;;;;5051219;28;20037;-75
2022/03/29 05:18:53;;;;;;;1.33;1.23;;;8.20;66.60;;;;;;5051334;28;20413;-75
2022/03/29 05:21:19;;;;;;;0.43;0.43;;;8.20;65.50;;;;;;5051419;28;20423;-75
2022/03/29 05:23:44;;;;;;;0.95;0.95;;;8.20;65.70;;;;;;5050116;28;20021;-75
2022/03/29 05:26:11;;;;;;;1.02;1.02;;;8.20;66.00;;;;;;5033399;28;20488;-75
2022/03/29 05:28:36;;;;;;;2.58;2.22;;;8.30;65.40;;;;;;5017080;28;20102;-75
2022/03/29 05:31:02;;;;;;;0.30;0.30;;;8.30;65.10;;;;;;5051457;28;20548;-75
2022/03/29 05:33:28;;;;;;;6.70;3.10;;;8.50;64.50;;;;;;5051535;28;20036;-76
2022/03/29 05:35:53;;;;;;;0.85;0.70;;;8.70;64.10;;;;;;5016540;28;20048;-75
2022/03/29 05:38:19;;;;;;;0.20;0.20;;;8.70;63.90;;;;;;5051175;28;20021;-75
2022/03/29 05:40:45;;;;;;;5.28;1.55;;;8.70;64.70;;;;;;5051248;28;20021;-75
2022/03/29 05:43:11;;;;;;;3.28;1.63;;;8.60;64.60;;;;;;5033353;28;20032;-76
2022/03/29 05:45:38;;;;;;;0.60;0.60;;;8.50;65.30;;;;;;5031643;28;20044;-75
2022/03/29 05:50:49;;;;;;;0.40;0.40;;;8.60;65.20;;;;;;5050796;28;20423;-75
2022/03/29 05:53:15;;;;;;;0.30;0.30;;;8.70;65.00;;;;;;5050920;28;20029;-76
2022/03/29 05:55:41;;;;;;;0.60;0.60;;;8.70;64.90;;;;;;5050343;28;20104;-75
2022/03/29 05:58:07;;;;;;;4.20;2.58;;;8.80;65.40;;;;;;5054368;28;20404;-75
2022/03/29 06:00:32;;;;;;;0.50;0.50;;;8.80;65.20;;;;;;5036437;28;20052;-76
2022/03/29 06:02:58;;;;;;;0.20;0.20;;;8.90;64.10;;;;;;5054506;28;20484;-75
2022/03/29 06:05:24;;;;;;;1.38;1.30;;;8.90;64.20;;;;;;5054470;28;20025;-74
2022/03/29 06:07:50;;;;;;;0.85;0.85;;;9.00;64.00;;;;;;5019888;28;20128;-75
2022/03/29 06:10:16;;;;;;;1.70;1.60;;;9.00;63.70;;;;;;5054235;28;20040;-75
2022/03/29 06:12:46;;;;;;;1.63;1.52;;;9.10;63.30;;;;;;5054592;28;20029;-75
2022/03/29 06:15:12;;;;;;;1.33;1.33;;;9.10;64.30;;;;;;5036301;28;20024;-75
2022/03/29 06:17:39;;;;;;;1.02;1.00;;;9.30;64.00;;;;;;5036277;28;20021;-75
2022/03/29 06:20:07;;;;;;;2.28;2.17;;;9.40;62.90;;;;;;5036271;28;20047;-75
2022/03/29 06:22:38;;;;;;;1.98;0.88;;;9.40;62.90;;;;;;5054102;28;20025;-76
2022/03/29 06:25:04;;;;;;;1.17;0.63;;;9.30;63.40;;;;;;5054067;28;20025;-76
2022/03/29 06:27:30;;;;;;;0.22;0.22;;;9.40;64.10;;;;;;5054036;28;20067;-76
2022/03/29 06:29:57;;;;;;;0.63;0.63;;;9.40;64.80;;;;;;5035042;28;20048;-76
2022/03/29 06:32:26;;;;;;;0.65;0.65;;;9.60;62.80;;;;;;5018703;28;20392;-76
2022/03/29 06:34:52;;;;;;;3.83;1.27;;;9.70;62.50;;;;;;5053648;28;20032;-76
2022/03/29 06:37:17;;;;;;;0.63;0.63;;;9.80;62.20;;;;;;5035634;28;20017;-76
2022/03/29 06:39:43;;;;;;;1.50;0.63;;;9.90;62.10;;;;;;5035658;28;20017;-76
2022/03/29 06:42:09;;;;;;;1.10;1.05;;;9.90;61.60;;;;;;5053763;28;20025;-75
2022/03/29 06:44:35;;;;;;;0.30;0.30;;;9.80;61.60;;;;;;5019348;28;20457;-75
2022/03/29 06:47:01;;;;;;;0.20;0.20;;;9.90;61.70;;;;;;5053457;28;20017;-73
2022/03/29 06:49:28;;;;;;;0.30;0.30;;;10.00;61.80;;;;;;5035813;28;20035;-75
2022/03/29 06:51:53;;;;;;;7.18;2.10;;;10.10;61.90;;;;;;5053870;28;20021;-74
2022/03/29 06:54:19;;;;;;;0.88;0.88;;;10.10;61.20;;;;;;5019117;28;20021;-75
2022/03/29 06:56:45;;;;;;;4.53;1.90;;;10.20;61.60;;;;;;5051770;28;20454;-75
2022/03/29 06:59:11;;;;;;;1.50;1.40;;;10.20;61.00;;;;;;5042270;28;20029;-77
2022/03/29 07:01:37;;;;;;;1.80;1.00;;;10.20;61.00;;;;;;5035917;28;20033;-76
2022/03/29 07:04:04;;;;;;;1.10;1.10;;;10.20;61.10;;;;;;5039513;28;20029;-76
2022/03/29 07:06:32;;;;;;;0.35;0.35;;;10.30;61.70;;;;;;5039461;28;20033;-76
2022/03/29 07:11:48;;;;;;;0.60;0.60;;;10.50;60.80;;;;;;5002362;28;20486;-77
2022/03/29 07:14:14;;;;;;;0.63;0.63;;;10.60;60.30;;;;;;5022986;28;20033;-76
2022/03/29 07:16:41;;;;;;;0.43;0.43;;;10.70;60.30;;;;;;5022896;28;20056;-76
2022/03/29 07:19:08;;;;;;;1.55;0.40;;;10.70;60.00;;;;;;5022497;28;20041;-77
2022/03/29 07:21:39;;;;;;;30.95;1.75;;;10.80;59.40;;;;;;5022875;28;20063;-75
2022/03/29 07:24:05;;;;;;;6.50;0.95;;;11.00;59.10;;;;;;5022582;28;20037;-76
2022/03/29 07:26:32;;;;;;;1.40;1.30;;;11.00;58.90;;;;;;5021385;28;20041;-75
2022/03/29 07:28:57;;;;;;;0.35;0.35;;;11.20;58.60;;;;;;5021449;28;20527;-76
2022/03/29 07:31:24;;;;;;;15.98;1.85;;;11.40;58.50;;;;;;5040107;28;20037;-76
2022/03/29 07:33:49;;;;;;;0.60;0.60;;;11.60;57.90;;;;;;5039444;28;20029;-76
2022/03/29 07:36:15;;;;;;;10.88;3.50;;;11.80;57.60;;;;;;5022337;28;20053;-76
2022/03/29 07:38:41;;;;;;;5.47;4.47;;;11.90;57.10;;;;;;5022397;28;20029;-76
2022/03/29 07:41:07;;;;;;;0.30;0.30;;;12.10;56.90;;;;;;5040378;28;20036;-76
2022/03/29 07:43:33;;;;;;;1.20;1.10;;;12.30;56.70;;;;;;5021809;28;20035;-77
2022/03/29 07:45:59;;;;;;;0.70;0.70;;;12.30;56.20;;;;;;5040291;28;20025;-76
2022/03/29 07:48:25;;;;;;;2.97;2.25;;;12.40;56.30;;;;;;5021081;28;20116;-76
2022/03/29 07:50:51;;;;;;;6.85;2.15;;;12.50;56.10;;;;;;5040585;28;20025;-76
2022/03/29 07:53:17;;;;;;;4.63;3.30;;;12.50;55.50;;;;;;5040402;28;20545;-76
2022/03/29 07:55:43;;;;;;;3.25;2.28;;;12.50;55.10;;;;;;5039638;28;20044;-77
2022/03/29 07:58:09;;;;;;;2.40;1.42;;;12.60;55.10;;;;;;5039698;28;20060;-74
2022/03/29 08:00:35;;;;;;;0.30;0.30;;;12.60;54.50;;;;;;5040132;28;20064;-74
2022/03/29 08:03:09;;;;;;;4.22;3.58;;;12.70;54.60;;;;;;5039590;28;20029;-74
2022/03/29 08:05:36;;;;;;;3.25;1.52;;;12.70;54.00;;;;;;5021635;28;20076;-75
2022/03/29 08:08:03;;;;;;;2.70;1.60;;;12.70;54.00;;;;;;5021576;28;20480;-75
2022/03/29 08:10:31;;;;;;;7.53;1.95;;;12.80;53.70;;;;;;5022459;28;20027;-74
2022/03/29 08:13:01;;;;;;;3.10;1.45;;;12.80;53.20;;;;;;5021337;28;20224;-74
2022/03/29 08:15:31;;;;;;;0.85;0.85;;;12.80;53.00;;;;;;5020549;28;20064;-75
2022/03/29 08:17:58;;;;;;;1.77;1.67;;;13.00;52.80;;;;;;5020552;28;20514;-74
2022/03/29 08:20:24;;;;;;;4.75;2.15;;;13.20;52.20;;;;;;5021870;28;20032;-74
2022/03/29 08:22:50;;;;;;;2.35;1.55;;;13.30;51.90;;;;;;5021136;28;20438;-75
2022/03/29 08:25:18;;;;;;;0.20;0.20;;;13.30;51.40;;;;;;5040347;28;20033;-75
2022/03/29 08:27:45;;;;;;;7.50;3.90;;;13.50;51.60;;;;;;5004592;28;20531;-75
2022/03/29 08:30:13;;;;;;;4.30;1.85;;;13.50;51.50;;;;;;5004455;28;20037;-75
2022/03/29 08:32:39;;;;;;;4.32;3.70;;;13.70;51.20;;;;;;5039089;28;20550;-76
2022/03/29 08:35:07;;;;;;;8.63;5.07;;;13.90;50.70;;;;;;5038604;28;20099;-74
2022/03/29 08:37:35;;;;;;;7.45;3.22;;;13.90;48.50;;;;;;5021448;28;20024;-76
2022/03/29 08:40:03;;;;;;;6.90;3.88;;;14.00;48.50;;;;;;5039111;28;20496;-74
2022/03/29 08:42:29;;;;;;;1.42;1.33;;;14.10;48.30;;;;;;5021376;28;20036;-76
2022/03/29 08:44:55;;;;;;;1.23;0.88;;;14.40;48.30;;;;;;5039459;28;20036;-76
2022/03/29 08:47:21;;;;;;;5.03;2.17;;;14.40;48.00;;;;;;5039770;28;20044;-75
2022/03/29 08:49:49;;;;;;;4.22;1.52;;;14.60;47.20;;;;;;5037604;28;20036;-75
2022/03/29 08:52:20;;;;;;;0.73;0.70;;;14.70;47.30;;;;;;5039352;28;20080;-75
2022/03/29 08:54:46;;;;;;;0.25;0.25;;;14.80;46.90;;;;;;5021443;28;20037;-75
2022/03/29 08:57:14;;;;;;;7.38;3.95;;;14.90;47.40;;;;;;5039224;28;20759;-75
2022/03/29 08:59:41;;;;;;;1.55;0.45;;;14.90;46.30;;;;;;5038600;28;20027;-76
2022/03/29 09:02:12;;;;;;;3.53;2.65;;;15.00;46.00;;;;;;5021550;28;20064;-76
2022/03/29 09:04:39;;;;;;;0.90;0.73;;;15.20;45.30;;;;;;5039432;28;20033;-76
2022/03/29 09:07:05;;;;;;;7.00;3.72;;;15.20;45.90;;;;;;5020849;28;20511;-75
2022/03/29 09:09:37;;;;;;;1.65;1.17;;;15.50;45.40;;;;;;5020951;28;20029;-75
2022/03/29 09:12:15;;;;;;;21.67;5.35;;;15.70;45.20;;;;;;5021082;28;20029;-76
2022/03/29 09:14:52;;;;;;;2.03;1.23;;;15.60;44.00;;;;;;5020972;28;20039;-76
2022/03/29 09:17:41;;;;;;;9.93;5.47;;;15.70;44.10;;;;;;5021681;28;20150;-75
2022/03/29 09:20:08;;;;;;;12.80;4.47;;;16.00;43.60;;;;;;5021000;28;20257;-74
2022/03/29 09:22:44;;;;;;;5.35;1.48;;;16.30;42.70;;;;;;5038169;28;20025;-74
2022/03/29 09:25:18;;;;;;;1.17;1.08;;;16.70;42.00;;;;;;5038774;28;20381;-75
2022/03/29 09:28:00;;;;;;;3.55;1.45;;;17.10;41.60;;;;;;5020771;28;20037;-75
2022/03/29 09:30:40;;;;;;;6.00;2.22;;;17.10;41.40;;;;;;5039590;28;20029;-75
2022/03/29 09:33:08;;;;;;;3.08;2.83;;;16.80;41.90;;;;;;5025777;28;20028;-75
2022/03/29 09:35:54;;;;;;;5.18;1.48;;;16.70;42.30;;;;;;5025416;28;20043;-75
2022/03/29 09:38:27;;;;;;;2.38;1.15;;;16.80;42.40;;;;;;5025307;28;20480;-76
2022/03/29 09:40:55;;;;;;;4.75;2.80;;;16.90;41.70;;;;;;5042704;28;20024;-76
2022/03/29 09:43:24;;;;;;;0.40;0.40;;;16.90;41.60;;;;;;5025376;28;20048;-75
2022/03/29 09:45:55;;;;;;;7.53;2.72;;;17.00;42.00;;;;;;5024810;28;20659;-75
2022/03/29 09:48:33;;;;;;;13.73;5.32;;;17.20;41.90;;;;;;5042033;28;20059;-75
2022/03/29 09:51:08;;;;;;;3.95;2.42;;;16.80;41.40;;;;;;5042408;28;20033;-75
2022/03/29 09:53:41;;;;;;;2.90;1.33;;;17.00;42.10;;;;;;5042943;28;20420;-75
2022/03/29 09:56:11;;;;;;;10.38;5.70;;;17.40;42.40;;;;;;5040656;28;20163;-75
2022/03/29 09:58:38;;;;;;;3.20;2.83;;;17.20;41.10;;;;;;5024170;28;20021;-75
2022/03/29 10:01:05;;;;;;;0.10;0.10;;;17.10;41.70;;;;;;5041642;28;20755;-75
2022/03/29 10:03:36;;;;;;;9.60;3.30;;;17.50;41.80;;;;;;5041375;28;20373;-75
2022/03/29 10:06:05;;;;;;;16.42;6.10;;;17.70;40.80;;;;;;5040693;28;20029;-75
2022/03/29 10:11:22;;;;;;;8.48;4.25;;;17.20;41.80;;;;;;5042078;28;20060;-75
2022/03/29 10:13:49;;;;;;;1.10;0.57;;;17.00;42.40;;;;;;5042576;28;20035;-76
2022/03/29 10:16:16;;;;;;;2.28;1.10;;;17.30;42.40;;;;;;5041362;28;20037;-75
2022/03/29 10:18:46;;;;;;;0.35;0.35;;;17.30;42.10;;;;;;5024506;28;20444;-76
2022/03/29 10:21:16;;;;;;;3.25;3.00;;;17.50;42.50;;;;;;5042033;28;20023;-75
2022/03/29 10:23:49;;;;;;;0.25;0.25;;;17.60;42.50;;;;;;5042219;28;20397;-76
2022/03/29 10:26:22;;;;;;;8.57;4.75;;;18.20;41.80;;;;;;5041180;28;20021;-75
2022/03/29 10:28:49;;;;;;;0.98;0.55;;;18.00;41.10;;;;;;5042020;28;20029;-75
2022/03/29 10:31:39;;;;;;;0.40;0.40;;;18.00;42.30;;;;;;5042346;28;20037;-76
2022/03/29 10:34:18;;;;;;;1.55;1.17;;;17.90;42.00;;;;;;5025095;28;20361;-75
2022/03/29 10:37:16;;;;;;;0.40;0.40;;;18.20;40.90;;;;;;5041994;28;20431;-75
2022/03/29 10:39:45;;;;;;;0.77;0.77;;;18.40;40.70;;;;;;5023780;28;20017;-75
2022/03/29 10:42:29;;;;;;;5.88;2.05;;;18.30;40.10;;;;;;5024188;28;20096;-76
2022/03/29 10:45:16;;;;;;;8.93;2.92;;;17.90;41.30;;;;;;5024004;28;20040;-75
2022/03/29 10:48:06;;;;;;;2.90;0.50;;;17.60;41.60;;;;;;5042378;28;20929;-75
2022/03/29 10:50:54;;;;;;;0.52;0.52;;;17.60;42.70;;;;;;5028164;28;20112;-76
2022/03/29 10:53:25;;;;;;;2.40;1.85;;;17.70;41.60;;;;;;5006615;28;20118;-75
2022/03/29 10:56:12;;;;;;;7.93;3.70;;;17.70;41.00;;;;;;5023337;28;20033;-75
2022/03/29 10:59:00;;;;;;;15.00;7.43;;;17.40;41.40;;;;;;5023675;28;20141;-75
2022/03/29 11:01:26;;;;;;;6.50;3.75;;;17.70;41.80;;;;;;5007295;28;20136;-74
2022/03/29 11:04:20;;;;;;;12.95;11.18;;;17.40;41.40;;;;;;5023408;28;20414;-75
2022/03/29 11:07:10;;;;;;;0.10;0.10;;;17.40;41.20;;;;;;5020343;28;20484;-75
2022/03/29 11:09:37;;;;;;;2.17;1.85;;;17.50;41.90;;;;;;5023697;28;20111;-74
2022/03/29 11:12:03;;;;;;;0.93;0.90;;;17.60;41.80;;;;;;5041419;28;20107;-74
2022/03/29 11:14:30;;;;;;;5.72;3.80;;;17.80;41.40;;;;;;5041459;28;20122;-75
2022/03/29 11:17:18;;;;;;;8.70;4.30;;;18.00;41.10;;;;;;5040963;28;20041;-74
2022/03/29 11:19:47;;;;;;;0.25;0.25;;;18.10;41.20;;;;;;5041284;28;20041;-75
2022/03/29 11:22:22;;;;;;;3.47;1.77;;;18.30;40.70;;;;;;5041007;28;20882;-75
2022/03/29 11:24:52;;;;;;;5.50;2.03;;;18.20;40.20;;;;;;5041361;28;20039;-75
2022/03/29 11:27:23;;;;;;;0.45;0.43;;;18.30;39.90;;;;;;5023129;28;20500;-75
2022/03/29 11:29:50;;;;;;;0.10;0.10;;;18.00;38.50;;;;;;5041248;28;20416;-75
2022/03/29 11:32:17;;;;;;;1.48;1.25;;;18.00;38.70;;;;;;5040838;28;20501;-75
2022/03/29 11:34:44;;;;;;;0.52;0.52;;;17.90;39.10;;;;;;5023289;28;20041;-75
2022/03/29 11:37:29;;;;;;;5.18;1.70;;;17.90;39.40;;;;;;5021464;28;20773;-76
2022/03/29 11:39:56;;;;;;;1.50;0.95;;;17.70;39.20;;;;;;5023240;28;20063;-75
2022/03/29 11:42:22;;;;;;;8.57;1.80;;;17.70;39.70;;;;;;5041291;28;20511;-75
2022/03/29 11:44:49;;;;;;;0.50;0.50;;;17.60;40.40;;;;;;5040336;28;21002;-75
2022/03/29 11:47:15;;;;;;;0.10;0.10;;;17.50;41.40;;;;;;5021912;28;20058;-75
2022/03/29 11:49:42;;;;;;;4.15;2.75;;;17.70;42.60;;;;;;5022595;28;20056;-75
2022/03/29 11:52:18;;;;;;;2.05;1.17;;;17.80;43.40;;;;;;5022336;28;20530;-75
2022/03/29 11:54:51;;;;;;;1.45;1.35;;;17.70;41.20;;;;;;5039995;28;20039;-76
2022/03/29 11:57:30;;;;;;;9.55;1.33;;;17.50;40.10;;;;;;5041057;28;20063;-75
2022/03/29 11:59:57;;;;;;;0.40;0.20;;;17.40;39.00;;;;;;5040891;28;20032;-75
2022/03/29 12:02:25;;;;;;;0.75;0.75;;;17.60;39.70;;;;;;5039789;28;21487;-75
2022/03/29 12:04:52;;;;;;;6.35;3.33;;;17.90;40.30;;;;;;5039365;28;20025;-75
2022/03/29 12:07:44;;;;;;;0.20;0.20;;;17.90;41.00;;;;;;5022125;28;20029;-75
2022/03/29 12:10:11;;;;;;;6.10;2.95;;;18.00;40.10;;;;;;5041059;28;20111;-75
2022/03/29 12:12:37;;;;;;;2.63;2.35;;;17.80;40.60;;;;;;5005895;28;20428;-75
2022/03/29 12:15:06;;;;;;;6.50;2.85;;;17.60;40.20;;;;;;5021872;28;20099;-75
2022/03/29 12:17:34;;;;;;;1.67;1.58;;;17.40;39.90;;;;;;5040067;28;20816;-76
2022/03/29 12:20:00;;;;;;;6.22;2.42;;;17.50;40.00;;;;;;5040150;28;20032;-76
2022/03/29 12:22:29;;;;;;;2.60;1.00;;;17.20;39.80;;;;;;5005272;28;20575;-76
2022/03/29 12:24:57;;;;;;;1.35;1.25;;;17.60;39.50;;;;;;5022154;28;20025;-76
2022/03/29 12:27:23;;;;;;;8.45;2.78;;;17.60;39.00;;;;;;5039762;28;20374;-76
2022/03/29 12:29:56;;;;;;;15.27;5.60;;;17.70;39.20;;;;;;5022095;28;20544;-76
2022/03/29 12:32:22;;;;;;;0.38;0.38;;;17.60;39.60;;;;;;5039345;28;20060;-76
2022/03/29 12:35:03;;;;;;;1.33;0.63;;;17.60;39.90;;;;;;5039676;28;20033;-77
2022/03/29 12:37:29;;;;;;;0.20;0.20;;;17.60;39.60;;;;;;5021543;28;20460;-76
2022/03/29 12:39:57;;;;;;;0.32;0.32;;;17.50;39.30;;;;;;5039563;28;20029;-76
2022/03/29 12:42:23;;;;;;;0.75;0.75;;;17.70;39.60;;;;;;5020848;28;20038;-76
2022/03/29 12:44:57;;;;;;;1.35;1.27;;;17.80;38.70;;;;;;5039732;28;21276;-76
2022/03/29 12:47:25;;;;;;;3.83;1.95;;;17.80;38.40;;;;;;5039160;28;20037;-76
2022/03/29 12:49:51;;;;;;;10.10;2.22;;;17.70;38.30;;;;;;5039669;28;20086;-76
2022/03/29 12:52:18;;;;;;;1.98;1.88;;;17.60;38.50;;;;;;5005133;28;20485;-76
2022/03/29 12:54:45;;;;;;;0.60;0.60;;;17.50;38.50;;;;;;5004540;28;20539;-76
2022/03/29 12:57:15;;;;;;;1.00;0.98;;;17.20;39.20;;;;;;5022027;28;20048;-76
2022/03/29 12:59:45;;;;;;;0.20;0.20;;;17.30;38.80;;;;;;5039918;28;20033;-76
2022/03/29 13:02:12;;;;;;;0.55;0.50;;;17.50;38.60;;;;;;5021106;28;20422;-77
2022/03/29 13:04:43;;;;;;;0.10;0.10;;;17.60;38.70;;;;;;5021791;28;20531;-76
2022/03/29 13:07:09;;;;;;;0.98;0.95;;;17.40;39.10;;;;;;5043452;28;20072;-76